Time;durP1;ratioP1;P1;durP2;ratioP2;P2;SDS_P1;SDS_P2;PMS_P1;PMS_P2;Temp;Humidity;BMP_temperature;BMP_pressure;BME280_temperature;BME280_humidity;BME280_pressure;Samples;Min_cycle;Max_cycle;Signal;HPM_P1;HPM_P2
2023/06/29 00:01:00;;;;;;;16.95;14.82;;;20.70;99.90;;;;;;4828859;29;20053;-70
2023/06/29 00:03:27;;;;;;;18.00;15.50;;;20.60;99.90;;;;;;4834156;29;20045;-70
2023/06/29 00:05:57;;;;;;;19.15;17.13;;;20.60;99.90;;;;;;4843682;29;20048;-70
2023/06/29 00:08:24;;;;;;;16.65;14.95;;;20.50;99.90;;;;;;4826094;29;20041;-70
2023/06/29 00:10:52;;;;;;;16.35;14.63;;;20.40;99.90;;;;;;4836065;29;20102;-70
2023/06/29 00:13:19;;;;;;;17.55;15.18;;;20.30;99.90;;;;;;4851055;29;20021;-70
2023/06/29 00:15:46;;;;;;;19.80;15.20;;;20.20;99.90;;;;;;4852031;29;20040;-71
2023/06/29 00:18:13;;;;;;;16.85;15.10;;;20.10;99.90;;;;;;4842096;29;20030;-70
2023/06/29 00:20:43;;;;;;;16.77;14.88;;;20.10;99.90;;;;;;4815599;29;20385;-68
2023/06/29 00:23:09;;;;;;;19.67;15.40;;;20.00;99.90;;;;;;4841895;29;20381;-71
2023/06/29 00:25:38;;;;;;;23.65;18.55;;;19.90;99.90;;;;;;4840221;29;20044;-70
2023/06/29 00:28:05;;;;;;;19.50;17.45;;;19.90;99.90;;;;;;4843344;29;20033;-70
2023/06/29 00:30:31;;;;;;;22.25;18.75;;;19.80;99.90;;;;;;4835800;29;20056;-69
2023/06/29 00:32:58;;;;;;;19.13;17.13;;;19.80;99.90;;;;;;4851525;29;20842;-70
2023/06/29 00:35:24;;;;;;;17.73;15.93;;;19.80;99.90;;;;;;4850398;29;20044;-70
2023/06/29 00:37:51;;;;;;;16.45;14.65;;;19.70;99.90;;;;;;4842835;29;20037;-70
2023/06/29 00:40:17;;;;;;;20.63;17.13;;;19.70;99.90;;;;;;4814992;29;21756;-70
2023/06/29 00:42:43;;;;;;;16.67;14.15;;;19.60;99.90;;;;;;4841527;29;20041;-70
2023/06/29 00:45:10;;;;;;;19.95;16.27;;;19.60;99.90;;;;;;4839930;29;20497;-70
2023/06/29 00:47:37;;;;;;;15.23;13.63;;;19.50;99.90;;;;;;4838638;29;20033;-70
2023/06/29 00:50:05;;;;;;;15.98;14.15;;;19.50;99.90;;;;;;4841565;29;20039;-69
2023/06/29 00:52:32;;;;;;;16.55;14.40;;;19.40;99.90;;;;;;4833369;29;21014;-70
2023/06/29 00:54:59;;;;;;;18.33;16.23;;;19.40;99.90;;;;;;4814695;29;20131;-70
2023/06/29 00:57:25;;;;;;;18.17;15.93;;;19.30;99.90;;;;;;4838522;29;20041;-70
2023/06/29 00:59:52;;;;;;;17.63;15.80;;;19.30;99.90;;;;;;4818538;29;20048;-70
2023/06/29 01:02:18;;;;;;;18.33;15.15;;;19.30;99.90;;;;;;4820944;29;22162;-70
2023/06/29 01:04:48;;;;;;;16.02;14.32;;;19.30;99.90;;;;;;4823084;29;20047;-70
2023/06/29 01:07:32;;;;;;;18.92;16.90;;;19.30;99.90;;;;;;4826618;29;20498;-70
2023/06/29 01:09:59;;;;;;;16.30;14.60;;;19.20;99.90;;;;;;4842177;29;20049;-70
2023/06/29 01:12:26;;;;;;;21.05;17.90;;;19.20;99.90;;;;;;4850014;29;20044;-70
2023/06/29 01:14:55;;;;;;;18.90;16.95;;;19.20;99.90;;;;;;4837718;29;20033;-70
2023/06/29 01:17:26;;;;;;;17.65;15.77;;;19.20;99.90;;;;;;4837225;29;20037;-70
2023/06/29 01:19:56;;;;;;;16.80;15.00;;;19.20;99.90;;;;;;4833130;29;20044;-70
2023/06/29 01:22:32;;;;;;;17.10;15.30;;;19.20;99.90;;;;;;4805390;29;20057;-70
2023/06/29 01:25:02;;;;;;;18.08;15.95;;;19.20;99.90;;;;;;4839443;29;20048;-70
2023/06/29 01:27:29;;;;;;;17.13;15.05;;;19.10;99.90;;;;;;4847427;29;20040;-70
2023/06/29 01:30:00;;;;;;;16.15;14.45;;;19.10;99.90;;;;;;4839928;29;20037;-69
2023/06/29 01:32:34;;;;;;;17.65;15.80;;;19.10;99.90;;;;;;4839355;29;20025;-70
2023/06/29 01:35:02;;;;;;;18.13;16.23;;;19.10;99.90;;;;;;4838328;29;20037;-69
2023/06/29 01:37:39;;;;;;;20.52;18.33;;;19.10;99.90;;;;;;4836852;29;20048;-70
2023/06/29 01:40:09;;;;;;;18.00;16.17;;;19.20;99.90;;;;;;4828753;29;20702;-70
2023/06/29 01:42:37;;;;;;;19.88;16.10;;;19.20;99.90;;;;;;4837945;29;20029;-70
2023/06/29 01:45:09;;;;;;;17.98;15.25;;;19.20;99.90;;;;;;4848346;29;20032;-70
2023/06/29 01:47:36;;;;;;;17.92;16.05;;;19.20;99.90;;;;;;4848576;29;20025;-70
2023/06/29 01:50:03;;;;;;;17.17;15.27;;;19.20;99.90;;;;;;4834246;29;20045;-70
2023/06/29 01:52:30;;;;;;;18.30;16.30;;;19.30;99.90;;;;;;4839189;29;20044;-70
2023/06/29 01:54:56;;;;;;;18.05;15.85;;;19.30;99.90;;;;;;4838205;29;20440;-70
2023/06/29 01:57:23;;;;;;;17.48;15.60;;;19.30;99.90;;;;;;4838750;29;20049;-70
2023/06/29 01:59:49;;;;;;;17.50;15.70;;;19.30;99.90;;;;;;4831785;29;20045;-70
2023/06/29 02:02:16;;;;;;;19.98;17.80;;;19.30;99.90;;;;;;4838906;29;20049;-70
2023/06/29 02:04:42;;;;;;;24.75;19.70;;;19.40;99.90;;;;;;4847294;29;20048;-70
2023/06/29 02:07:10;;;;;;;22.58;20.17;;;19.40;99.90;;;;;;4831340;29;20044;-70
2023/06/29 02:09:36;;;;;;;18.77;16.77;;;19.40;99.90;;;;;;4822207;29;20048;-70
2023/06/29 02:12:04;;;;;;;21.15;18.98;;;19.40;99.90;;;;;;4817569;29;20087;-70
2023/06/29 02:14:31;;;;;;;21.80;19.60;;;19.50;99.90;;;;;;4835712;29;20045;-70
2023/06/29 02:16:57;;;;;;;22.80;19.88;;;19.50;99.90;;;;;;4808887;29;20275;-70
2023/06/29 02:19:23;;;;;;;25.38;21.35;;;19.60;99.90;;;;;;4834702;29;20048;-70
2023/06/29 02:21:50;;;;;;;22.75;20.35;;;19.60;99.90;;;;;;4840438;29;20040;-70
2023/06/29 02:24:16;;;;;;;23.55;19.00;;;19.60;99.90;;;;;;4818302;29;20261;-70
2023/06/29 02:26:42;;;;;;;22.27;19.95;;;19.60;99.90;;;;;;4843375;29;20021;-70
2023/06/29 02:29:09;;;;;;;24.08;21.52;;;19.70;99.90;;;;;;4834072;29;20448;-70
2023/06/29 02:31:35;;;;;;;24.63;21.52;;;19.70;99.90;;;;;;4833237;29;20037;-70
2023/06/29 02:34:02;;;;;;;29.08;23.50;;;19.70;99.90;;;;;;4836456;29;20033;-70
2023/06/29 02:36:30;;;;;;;27.88;23.13;;;19.70;99.90;;;;;;4836442;29;20056;-70
2023/06/29 02:38:56;;;;;;;24.92;22.05;;;19.70;99.90;;;;;;4838015;29;20056;-70
2023/06/29 02:41:23;;;;;;;26.15;22.77;;;19.80;99.90;;;;;;4842328;29;21495;-70
2023/06/29 02:43:49;;;;;;;23.75;21.20;;;19.80;99.90;;;;;;4831051;29;20048;-70
2023/06/29 02:46:16;;;;;;;25.58;22.50;;;19.80;99.90;;;;;;4838048;29;20037;-70
2023/06/29 02:48:43;;;;;;;24.00;21.40;;;19.80;99.90;;;;;;4820551;29;20715;-69
2023/06/29 02:51:10;;;;;;;25.27;21.40;;;19.80;99.90;;;;;;4828984;29;20036;-70
2023/06/29 02:53:38;;;;;;;24.05;21.55;;;19.80;99.90;;;;;;4835855;29;20053;-70
2023/06/29 02:56:04;;;;;;;25.63;22.88;;;19.80;99.90;;;;;;4835618;29;20060;-70
2023/06/29 02:58:31;;;;;;;25.88;22.85;;;19.80;99.90;;;;;;4841650;29;20041;-70
2023/06/29 03:00:58;;;;;;;25.38;22.50;;;19.80;99.90;;;;;;4840286;29;20052;-70
2023/06/29 03:03:27;;;;;;;27.73;23.58;;;19.80;99.90;;;;;;4825390;29;20048;-70
2023/06/29 03:05:53;;;;;;;26.85;23.95;;;19.80;99.90;;;;;;4817864;29;20044;-70
2023/06/29 03:08:20;;;;;;;26.70;22.98;;;19.80;99.90;;;;;;4820400;29;20544;-70
2023/06/29 03:10:46;;;;;;;22.63;20.25;;;19.80;99.90;;;;;;4828579;29;20045;-70
2023/06/29 03:13:13;;;;;;;22.48;19.95;;;19.80;99.90;;;;;;4838192;29;20408;-70
2023/06/29 03:15:39;;;;;;;24.15;21.63;;;19.80;99.90;;;;;;4841800;29;21593;-70
2023/06/29 03:18:05;;;;;;;25.00;21.95;;;19.80;99.90;;;;;;4848583;29;20047;-70
2023/06/29 03:20:32;;;;;;;27.00;23.98;;;19.80;99.90;;;;;;4820128;29;20063;-70
2023/06/29 03:22:58;;;;;;;24.33;21.30;;;19.80;99.90;;;;;;4837234;29;20033;-70
2023/06/29 03:25:24;;;;;;;26.92;22.83;;;19.80;99.90;;;;;;4834717;29;20036;-70
2023/06/29 03:27:50;;;;;;;25.65;22.92;;;19.80;99.90;;;;;;4820075;29;20037;-70
2023/06/29 03:30:17;;;;;;;29.15;23.25;;;19.80;99.90;;;;;;4830536;29;20044;-70
2023/06/29 03:32:43;;;;;;;27.67;23.65;;;19.80;99.90;;;;;;4820556;29;20033;-70
2023/06/29 03:35:10;;;;;;;26.02;22.83;;;19.80;99.90;;;;;;4843833;29;20055;-70
2023/06/29 03:37:36;;;;;;;26.05;22.58;;;19.80;99.90;;;;;;4847572;29;20032;-70
2023/06/29 03:40:02;;;;;;;25.85;21.92;;;19.90;99.90;;;;;;4836190;29;20045;-70
2023/06/29 03:42:29;;;;;;;24.20;20.77;;;19.90;99.90;;;;;;4834089;29;20916;-70
2023/06/29 03:44:55;;;;;;;25.95;23.20;;;19.90;99.90;;;;;;4837624;29;20052;-70
2023/06/29 03:47:21;;;;;;;25.88;22.67;;;19.90;99.90;;;;;;4834917;29;20040;-70
2023/06/29 03:49:48;;;;;;;23.55;21.02;;;19.90;99.90;;;;;;4831749;29;20045;-70
2023/06/29 03:52:14;;;;;;;23.90;21.33;;;19.90;99.90;;;;;;4816623;29;20819;-70
2023/06/29 03:54:40;;;;;;;23.95;21.10;;;20.00;99.90;;;;;;4827404;29;20055;-71
2023/06/29 03:57:07;;;;;;;24.65;21.65;;;20.00;99.90;;;;;;4843196;29;20051;-70
2023/06/29 03:59:33;;;;;;;22.08;19.02;;;20.00;99.90;;;;;;4831729;29;20041;-70
2023/06/29 04:01:59;;;;;;;22.98;20.05;;;20.00;99.90;;;;;;4830048;29;20041;-70
2023/06/29 04:04:26;;;;;;;24.48;21.95;;;20.00;99.90;;;;;;4833040;29;20049;-70
2023/06/29 04:06:52;;;;;;;26.15;22.77;;;20.00;99.90;;;;;;4835227;29;20017;-71
2023/06/29 04:09:18;;;;;;;25.33;21.88;;;20.00;99.90;;;;;;4832943;29;20035;-71
2023/06/29 04:11:44;;;;;;;24.88;22.17;;;20.10;99.90;;;;;;4837451;29;20045;-71
2023/06/29 04:14:11;;;;;;;25.17;21.92;;;20.10;99.90;;;;;;4829838;29;20055;-71
2023/06/29 04:16:37;;;;;;;24.05;21.55;;;20.10;99.90;;;;;;4843166;29;20447;-71
2023/06/29 04:19:03;;;;;;;28.55;25.65;;;20.10;99.90;;;;;;4832334;29;20052;-70
2023/06/29 04:21:30;;;;;;;29.48;26.38;;;20.10;99.90;;;;;;4814946;29;20048;-71
2023/06/29 04:23:56;;;;;;;27.83;24.55;;;20.10;99.90;;;;;;4834546;29;20045;-71
2023/06/29 04:26:22;;;;;;;27.15;24.33;;;20.10;99.90;;;;;;4833176;29;20056;-71
2023/06/29 04:28:49;;;;;;;28.05;23.23;;;20.20;99.90;;;;;;4833435;29;20041;-71
2023/06/29 04:31:15;;;;;;;26.80;23.15;;;20.20;99.90;;;;;;4839365;29;20026;-72
2023/06/29 04:33:41;;;;;;;27.08;22.90;;;20.20;99.90;;;;;;4830815;29;20408;-71
2023/06/29 04:36:11;;;;;;;27.33;21.90;;;20.20;99.90;;;;;;4841109;29;20488;-70
2023/06/29 04:38:37;;;;;;;28.90;25.27;;;20.20;99.90;;;;;;4820265;29;20041;-71
2023/06/29 04:41:04;;;;;;;29.80;24.58;;;20.20;99.90;;;;;;4828757;29;20049;-71
2023/06/29 04:43:31;;;;;;;26.05;23.27;;;20.30;99.90;;;;;;4834771;29;20413;-71
2023/06/29 04:46:00;;;;;;;27.02;24.13;;;20.30;99.90;;;;;;4835036;29;20052;-71
2023/06/29 04:48:32;;;;;;;23.10;20.63;;;20.30;99.90;;;;;;4839916;29;20029;-70
2023/06/29 04:51:04;;;;;;;27.65;24.10;;;20.30;99.90;;;;;;4843529;29;20123;-71
2023/06/29 04:53:34;;;;;;;27.42;24.10;;;20.40;99.90;;;;;;4844207;29;20045;-70
2023/06/29 04:56:02;;;;;;;26.70;23.83;;;20.40;99.90;;;;;;4836697;29;20385;-70
2023/06/29 04:58:29;;;;;;;28.20;25.00;;;20.50;99.90;;;;;;4837422;29;20393;-70
2023/06/29 05:00:55;;;;;;;24.33;21.50;;;20.50;99.90;;;;;;4836470;29;20048;-70
2023/06/29 05:03:23;;;;;;;25.88;23.15;;;20.50;99.90;;;;;;4839775;29;20047;-71
2023/06/29 05:05:49;;;;;;;27.40;23.33;;;20.60;99.90;;;;;;4839707;29;20041;-70
2023/06/29 05:08:16;;;;;;;27.23;24.33;;;20.60;99.90;;;;;;4848886;29;20052;-72
2023/06/29 05:10:42;;;;;;;27.58;23.25;;;20.60;99.90;;;;;;4844539;29;20453;-71
2023/06/29 05:13:09;;;;;;;27.55;23.98;;;20.70;99.90;;;;;;4840292;29;20025;-71
2023/06/29 05:15:35;;;;;;;27.40;24.50;;;20.70;99.90;;;;;;4808590;29;20045;-71
2023/06/29 05:18:01;;;;;;;25.67;22.98;;;20.70;99.90;;;;;;4836901;29;20396;-71
2023/06/29 05:20:28;;;;;;;26.67;23.58;;;20.70;99.90;;;;;;4832143;29;20021;-71
2023/06/29 05:22:55;;;;;;;26.63;22.80;;;20.70;99.90;;;;;;4837950;29;20166;-71
2023/06/29 05:25:21;;;;;;;25.67;22.95;;;20.70;99.90;;;;;;4848997;29;20382;-71
2023/06/29 05:27:48;;;;;;;30.23;23.50;;;20.70;99.90;;;;;;4846032;29;20408;-71
2023/06/29 05:30:16;;;;;;;24.77;22.23;;;20.80;99.90;;;;;;4838048;29;20044;-70
2023/06/29 05:32:42;;;;;;;27.80;24.88;;;20.80;99.90;;;;;;4836500;29;20436;-71
2023/06/29 05:35:09;;;;;;;26.85;22.17;;;20.80;99.90;;;;;;4837366;29;20487;-71
2023/06/29 05:37:35;;;;;;;26.60;23.55;;;20.80;99.90;;;;;;4837732;29;20041;-71
2023/06/29 05:40:02;;;;;;;27.30;24.40;;;20.90;99.90;;;;;;4816639;29;20045;-71
2023/06/29 05:42:28;;;;;;;28.60;24.45;;;20.90;99.90;;;;;;4840804;29;20048;-71
2023/06/29 05:44:55;;;;;;;28.80;24.73;;;20.90;99.90;;;;;;4847572;29;20052;-72
2023/06/29 05:47:21;;;;;;;28.00;25.00;;;21.00;99.90;;;;;;4842370;29;20037;-71
2023/06/29 05:49:48;;;;;;;28.48;24.98;;;21.10;99.90;;;;;;4832953;29;20045;-72
2023/06/29 05:52:14;;;;;;;27.33;24.33;;;21.20;99.90;;;;;;4836485;29;20049;-72
2023/06/29 05:54:40;;;;;;;28.38;25.33;;;21.30;99.90;;;;;;4805383;29;20053;-70
2023/06/29 05:57:06;;;;;;;27.90;24.00;;;21.40;99.90;;;;;;4837208;29;20072;-70
2023/06/29 05:59:33;;;;;;;29.50;24.35;;;21.50;99.90;;;;;;4821806;29;20056;-70
2023/06/29 06:01:59;;;;;;;27.05;24.15;;;21.60;99.90;;;;;;4843888;29;20040;-73
2023/06/29 06:04:26;;;;;;;31.50;25.85;;;21.70;99.90;;;;;;4844511;29;20044;-71
2023/06/29 06:06:52;;;;;;;26.50;22.13;;;21.80;99.90;;;;;;4836561;29;20045;-71
2023/06/29 06:09:18;;;;;;;23.35;20.85;;;21.90;99.90;;;;;;4833503;29;20256;-70
2023/06/29 06:11:44;;;;;;;27.75;22.98;;;22.00;99.90;;;;;;4835375;29;20041;-70
2023/06/29 06:14:11;;;;;;;25.25;22.55;;;22.10;99.90;;;;;;4837239;29;22232;-70
2023/06/29 06:16:37;;;;;;;27.20;24.27;;;22.20;99.90;;;;;;4820252;29;20041;-70
2023/06/29 06:19:03;;;;;;;27.92;24.63;;;22.20;99.90;;;;;;4824187;29;20033;-70
2023/06/29 06:21:30;;;;;;;28.35;23.45;;;22.20;99.90;;;;;;4830225;29;20140;-72
2023/06/29 06:23:56;;;;;;;27.48;24.15;;;22.20;99.90;;;;;;4846883;29;20048;-71
2023/06/29 06:26:23;;;;;;;30.75;27.25;;;22.30;99.90;;;;;;4836411;29;20404;-70
2023/06/29 06:28:50;;;;;;;26.83;23.90;;;22.20;99.90;;;;;;4833367;29;20049;-69
2023/06/29 06:31:17;;;;;;;26.02;21.92;;;22.30;99.90;;;;;;4816389;29;20378;-70
2023/06/29 06:33:45;;;;;;;25.15;22.45;;;22.30;99.90;;;;;;4838743;29;20052;-71
2023/06/29 06:36:11;;;;;;;25.17;22.15;;;22.30;99.90;;;;;;4820463;29;20457;-70
2023/06/29 06:38:38;;;;;;;25.83;22.15;;;22.30;99.90;;;;;;4826480;29;20061;-70
2023/06/29 06:41:04;;;;;;;24.08;21.63;;;22.20;99.90;;;;;;4826216;29;20040;-70
2023/06/29 06:43:31;;;;;;;23.58;21.02;;;22.20;99.90;;;;;;4839826;29;20037;-70
2023/06/29 06:45:58;;;;;;;27.77;24.13;;;22.10;99.90;;;;;;4818906;29;20045;-70
2023/06/29 06:48:25;;;;;;;26.80;23.05;;;22.00;99.90;;;;;;4835056;29;20052;-70
2023/06/29 06:50:51;;;;;;;23.13;20.63;;;22.00;99.90;;;;;;4832970;29;20045;-70
2023/06/29 06:53:17;;;;;;;22.67;17.83;;;22.00;99.90;;;;;;4819622;29;20028;-71
2023/06/29 06:55:44;;;;;;;19.75;16.85;;;22.00;99.90;;;;;;4835468;29;20080;-71
2023/06/29 06:58:11;;;;;;;21.63;18.60;;;22.10;99.90;;;;;;4845110;29;20073;-70
2023/06/29 07:00:38;;;;;;;28.63;23.38;;;22.20;99.90;;;;;;4839764;29;20044;-70
2023/06/29 07:03:05;;;;;;;29.33;23.77;;;22.30;99.90;;;;;;4836434;29;20033;-70
2023/06/29 07:05:31;;;;;;;22.75;19.98;;;22.40;99.90;;;;;;4834080;29;20599;-70
2023/06/29 07:07:57;;;;;;;22.85;20.33;;;22.40;99.90;;;;;;4833220;29;20041;-70
2023/06/29 07:10:24;;;;;;;24.25;19.77;;;22.50;99.90;;;;;;4829495;29;20433;-70
2023/06/29 07:12:50;;;;;;;23.02;20.00;;;22.60;99.90;;;;;;4822363;29;20044;-70
2023/06/29 07:15:16;;;;;;;28.05;21.95;;;22.80;99.90;;;;;;4825035;29;20033;-70
2023/06/29 07:17:43;;;;;;;24.23;18.63;;;22.90;99.90;;;;;;4831199;29;20397;-70
2023/06/29 07:20:11;;;;;;;22.38;19.55;;;23.00;99.90;;;;;;4838321;29;20037;-70
2023/06/29 07:22:37;;;;;;;20.30;18.15;;;23.10;99.90;;;;;;4835888;29;20037;-70
2023/06/29 07:25:04;;;;;;;23.05;19.08;;;23.10;99.90;;;;;;4805448;29;20037;-70
2023/06/29 07:27:31;;;;;;;25.88;22.42;;;23.20;99.90;;;;;;4835572;29;20040;-70
2023/06/29 07:29:57;;;;;;;27.30;20.63;;;23.30;99.90;;;;;;4829036;29;20052;-70
2023/06/29 07:32:24;;;;;;;21.17;18.50;;;23.30;99.90;;;;;;4835705;29;20064;-70
2023/06/29 07:34:50;;;;;;;23.80;21.08;;;23.30;99.90;;;;;;4828341;29;20527;-70
2023/06/29 07:37:16;;;;;;;23.92;20.63;;;23.40;99.90;;;;;;4844420;29;20490;-70
2023/06/29 07:39:43;;;;;;;24.42;20.27;;;23.40;99.90;;;;;;4830526;29;20071;-70
2023/06/29 07:42:09;;;;;;;20.88;18.38;;;23.40;99.90;;;;;;4817246;29;20048;-70
2023/06/29 07:44:35;;;;;;;21.13;17.90;;;23.50;99.90;;;;;;4836230;29;20410;-71
2023/06/29 07:47:02;;;;;;;25.55;20.63;;;23.60;99.90;;;;;;4838021;29;20040;-70
2023/06/29 07:49:28;;;;;;;22.83;18.17;;;23.60;99.90;;;;;;4833016;29;20048;-70
2023/06/29 07:51:54;;;;;;;23.73;18.45;;;23.60;99.90;;;;;;4839982;29;20038;-70
2023/06/29 07:54:20;;;;;;;22.35;18.73;;;23.60;99.90;;;;;;4846216;29;20040;-70
2023/06/29 07:56:47;;;;;;;20.30;17.20;;;23.60;99.90;;;;;;4842403;29;20089;-70
2023/06/29 07:59:13;;;;;;;18.40;16.45;;;23.60;99.90;;;;;;4815228;29;20048;-70
2023/06/29 08:01:39;;;;;;;20.50;17.95;;;23.50;99.90;;;;;;4819625;29;20390;-70
2023/06/29 08:04:07;;;;;;;19.30;17.23;;;23.50;99.90;;;;;;4836210;29;20061;-70
2023/06/29 08:06:34;;;;;;;21.35;17.00;;;23.60;99.90;;;;;;4837074;29;20064;-70
2023/06/29 08:09:00;;;;;;;19.05;17.02;;;23.70;99.90;;;;;;4835170;29;20473;-70
2023/06/29 08:11:27;;;;;;;21.20;17.48;;;23.70;99.90;;;;;;4841533;29;20044;-71
2023/06/29 08:13:54;;;;;;;18.98;16.70;;;23.80;99.90;;;;;;4829122;29;20037;-71
2023/06/29 08:16:21;;;;;;;21.98;18.20;;;23.90;99.90;;;;;;4837612;29;20495;-71
2023/06/29 08:18:47;;;;;;;21.60;17.08;;;24.10;99.90;;;;;;4832942;29;20052;-70
2023/06/29 08:21:14;;;;;;;18.08;15.90;;;24.20;99.90;;;;;;4831133;29;20048;-70
2023/06/29 08:23:40;;;;;;;21.63;19.25;;;24.30;99.90;;;;;;4834663;29;20033;-70
2023/06/29 08:26:06;;;;;;;18.25;15.18;;;24.50;99.90;;;;;;4837862;29;20037;-70
2023/06/29 08:28:33;;;;;;;21.90;18.33;;;24.60;99.90;;;;;;4845487;29;20044;-70
2023/06/29 08:30:59;;;;;;;23.13;19.35;;;24.70;99.90;;;;;;4828821;29;20041;-70
2023/06/29 08:33:25;;;;;;;19.70;16.98;;;24.90;99.90;;;;;;4844177;29;20406;-70
2023/06/29 08:35:52;;;;;;;22.20;19.08;;;25.00;99.90;;;;;;4840194;29;20045;-70
2023/06/29 08:38:18;;;;;;;21.65;18.33;;;25.00;99.90;;;;;;4841113;29;20502;-70
2023/06/29 08:40:47;;;;;;;22.63;18.25;;;25.10;99.90;;;;;;4817203;29;20036;-70
2023/06/29 08:43:17;;;;;;;21.60;17.50;;;25.30;99.90;;;;;;4838552;29;20037;-70
2023/06/29 08:45:47;;;;;;;18.98;16.35;;;25.70;99.90;;;;;;4827062;29;20052;-70
2023/06/29 08:48:14;;;;;;;16.98;15.13;;;25.90;99.90;;;;;;4849823;29;20033;-70
2023/06/29 08:50:49;;;;;;;19.02;16.05;;;26.10;99.90;;;;;;4821485;29;20037;-70
2023/06/29 08:53:16;;;;;;;18.88;15.55;;;26.30;99.90;;;;;;4840977;29;20048;-70
2023/06/29 08:55:43;;;;;;;21.52;19.17;;;26.40;99.90;;;;;;4838845;29;20067;-70
2023/06/29 08:58:10;;;;;;;18.67;16.67;;;26.50;99.90;;;;;;4825666;29;20041;-71
2023/06/29 09:00:37;;;;;;;17.38;15.52;;;26.60;99.90;;;;;;4831371;29;20544;-70
2023/06/29 09:03:04;;;;;;;17.85;15.65;;;26.70;99.90;;;;;;4824119;29;20045;-70
2023/06/29 09:05:32;;;;;;;20.52;17.90;;;26.90;99.90;;;;;;4849952;29;20044;-71
2023/06/29 09:07:59;;;;;;;18.83;15.88;;;27.00;99.90;;;;;;4849962;29;20511;-70
2023/06/29 09:10:25;;;;;;;19.15;17.08;;;27.10;99.90;;;;;;4835336;29;20383;-70
2023/06/29 09:12:54;;;;;;;22.25;18.58;;;27.20;99.90;;;;;;4839533;29;20397;-70
2023/06/29 09:15:25;;;;;;;21.15;16.92;;;27.20;99.90;;;;;;4839584;29;20401;-71
2023/06/29 09:17:55;;;;;;;17.90;15.95;;;27.20;99.90;;;;;;4825723;29;20045;-70
2023/06/29 09:20:21;;;;;;;20.23;17.80;;;27.20;99.90;;;;;;4834090;29;20045;-71
2023/06/29 09:22:51;;;;;;;21.55;19.08;;;27.20;99.90;;;;;;4844028;29;20032;-71
2023/06/29 09:25:18;;;;;;;20.40;18.02;;;27.20;99.90;;;;;;4847973;29;20052;-70
2023/06/29 09:27:44;;;;;;;18.60;16.17;;;27.30;99.90;;;;;;4831052;29;20033;-71
2023/06/29 09:30:21;;;;;;;17.80;15.77;;;27.30;99.90;;;;;;4834776;29;20045;-70
2023/06/29 09:32:47;;;;;;;19.30;17.13;;;27.50;99.90;;;;;;4837698;29;20033;-71
2023/06/29 09:35:13;;;;;;;17.50;15.52;;;27.60;99.90;;;;;;4838416;29;20044;-71
2023/06/29 09:37:40;;;;;;;20.33;18.23;;;27.80;99.90;;;;;;4838993;29;20504;-70
2023/06/29 09:40:11;;;;;;;17.25;15.02;;;27.90;99.90;;;;;;4837680;29;20405;-70
2023/06/29 09:42:38;;;;;;;19.65;16.67;;;27.90;99.90;;;;;;4845965;29;20686;-71
2023/06/29 09:45:11;;;;;;;21.40;17.45;;;27.90;99.90;;;;;;4847604;29;20046;-71
2023/06/29 09:47:40;;;;;;;17.45;15.05;;;27.90;99.90;;;;;;4839053;29;20044;-70
2023/06/29 09:50:21;;;;;;;16.50;14.77;;;28.00;99.90;;;;;;4833597;29;20033;-70
2023/06/29 09:52:51;;;;;;;17.27;15.48;;;28.20;99.90;;;;;;4836261;29;20045;-70
2023/06/29 09:55:18;;;;;;;16.48;14.65;;;28.30;99.90;;;;;;4838937;29;20037;-70
2023/06/29 09:57:54;;;;;;;19.50;17.42;;;28.40;99.90;;;;;;4837516;29;20686;-70
2023/06/29 10:00:20;;;;;;;17.13;15.38;;;28.60;99.90;;;;;;4825982;29;20037;-70
2023/06/29 10:02:46;;;;;;;16.55;14.38;;;28.70;99.90;;;;;;4847242;29;20488;-71
2023/06/29 10:05:13;;;;;;;22.55;18.23;;;28.90;99.90;;;;;;4841258;29;20041;-71
2023/06/29 10:07:41;;;;;;;20.30;18.20;;;29.00;99.50;;;;;;4837646;29;20044;-70
2023/06/29 10:10:11;;;;;;;18.10;15.68;;;29.00;99.00;;;;;;4834394;29;20033;-70
2023/06/29 10:12:37;;;;;;;19.00;16.05;;;29.00;99.00;;;;;;4837843;29;20559;-71
2023/06/29 10:15:09;;;;;;;18.35;16.05;;;29.20;98.80;;;;;;4837080;29;20045;-71
2023/06/29 10:17:53;;;;;;;17.77;15.95;;;29.20;98.70;;;;;;4825296;29;20044;-71
2023/06/29 10:20:24;;;;;;;18.23;15.95;;;29.30;98.30;;;;;;4839719;29;20044;-72
2023/06/29 10:22:52;;;;;;;17.75;15.85;;;29.20;97.80;;;;;;4843736;29;20033;-72
2023/06/29 10:25:21;;;;;;;19.20;16.45;;;29.00;97.60;;;;;;4835457;29;20053;-71
2023/06/29 10:27:49;;;;;;;19.02;16.63;;;28.80;97.20;;;;;;4838717;29;20040;-72
2023/06/29 10:30:22;;;;;;;19.13;17.17;;;28.60;97.50;;;;;;4830269;29;20033;-72
2023/06/29 10:32:50;;;;;;;17.17;14.40;;;28.50;97.60;;;;;;4819033;29;20107;-72
2023/06/29 10:35:17;;;;;;;17.80;15.90;;;28.40;97.70;;;;;;4842467;29;20119;-71
2023/06/29 10:37:47;;;;;;;17.50;15.70;;;28.50;97.50;;;;;;4849183;29;20239;-72
2023/06/29 10:40:14;;;;;;;18.25;16.30;;;28.70;97.60;;;;;;4825481;29;20045;-71
2023/06/29 10:42:41;;;;;;;16.27;14.68;;;29.00;97.40;;;;;;4835900;29;20044;-72
2023/06/29 10:45:20;;;;;;;20.35;18.15;;;29.50;97.20;;;;;;4838429;29;20516;-71
2023/06/29 10:48:00;;;;;;;18.88;16.98;;;30.10;96.70;;;;;;4842471;29;20044;-71
2023/06/29 10:50:36;;;;;;;18.63;15.50;;;30.40;95.70;;;;;;4830807;29;20033;-71
2023/06/29 10:53:05;;;;;;;18.83;16.77;;;30.40;94.90;;;;;;4820781;29;20438;-73
2023/06/29 10:55:39;;;;;;;16.33;14.63;;;30.40;94.30;;;;;;4846358;29;20049;-72
2023/06/29 10:58:14;;;;;;;16.67;14.95;;;30.30;93.90;;;;;;4832668;29;20048;-71
2023/06/29 11:00:41;;;;;;;17.08;15.38;;;30.50;93.90;;;;;;4843976;29;20519;-72
2023/06/29 11:03:09;;;;;;;17.38;15.65;;;30.90;93.60;;;;;;4829813;29;20041;-71
2023/06/29 11:05:36;;;;;;;16.13;14.05;;;31.30;93.00;;;;;;4826432;29;20041;-72
2023/06/29 11:08:04;;;;;;;17.20;15.35;;;31.30;92.50;;;;;;4825395;29;20112;-72
2023/06/29 11:10:30;;;;;;;16.55;14.80;;;31.20;92.20;;;;;;4819994;29;20072;-72
2023/06/29 11:12:56;;;;;;;16.45;14.80;;;31.00;92.00;;;;;;4830422;29;20041;-71
2023/06/29 11:15:23;;;;;;;16.67;15.05;;;30.80;92.00;;;;;;4834823;29;20046;-71
2023/06/29 11:17:51;;;;;;;17.35;15.55;;;30.70;92.10;;;;;;4832398;29;20033;-71
2023/06/29 11:20:22;;;;;;;18.58;16.13;;;30.50;91.70;;;;;;4813317;29;20393;-71
2023/06/29 11:22:51;;;;;;;14.50;13.10;;;30.30;91.50;;;;;;4835141;29;20961;-71
2023/06/29 11:25:17;;;;;;;15.70;14.05;;;30.10;91.50;;;;;;4835878;29;22689;-71
2023/06/29 11:27:45;;;;;;;15.63;14.13;;;29.90;91.60;;;;;;4835071;29;20077;-71
2023/06/29 11:30:12;;;;;;;15.57;13.98;;;29.80;91.50;;;;;;4815577;29;20376;-71
2023/06/29 11:32:39;;;;;;;17.63;15.77;;;29.80;91.60;;;;;;4842659;29;20037;-71
2023/06/29 11:35:10;;;;;;;16.45;14.75;;;29.90;91.30;;;;;;4844254;29;20064;-71
2023/06/29 11:37:39;;;;;;;17.90;16.10;;;30.00;91.30;;;;;;4836767;29;20041;-71
2023/06/29 11:40:21;;;;;;;15.95;14.35;;;30.20;91.40;;;;;;4831038;29;20406;-71
2023/06/29 11:42:49;;;;;;;17.40;15.55;;;30.50;91.30;;;;;;4834123;29;20503;-71
2023/06/29 11:45:17;;;;;;;18.60;16.60;;;30.70;90.60;;;;;;4834478;29;20653;-71
2023/06/29 11:47:46;;;;;;;19.08;17.08;;;30.70;90.10;;;;;;4835898;29;20057;-71
2023/06/29 11:50:13;;;;;;;17.85;15.98;;;30.90;89.80;;;;;;4834642;29;20048;-71
2023/06/29 11:52:41;;;;;;;17.23;15.45;;;30.80;88.70;;;;;;4843471;29;20205;-71
2023/06/29 11:55:11;;;;;;;18.98;17.05;;;31.00;88.60;;;;;;4836123;29;20516;-70
2023/06/29 11:57:39;;;;;;;19.08;16.83;;;31.10;88.50;;;;;;4800622;29;20068;-70
2023/06/29 12:00:29;;;;;;;18.50;16.60;;;31.40;87.70;;;;;;4825770;29;20041;-70
2023/06/29 12:02:55;;;;;;;19.40;17.38;;;31.70;87.40;;;;;;4833723;29;20033;-70
2023/06/29 12:05:27;;;;;;;20.52;18.38;;;32.10;86.60;;;;;;4834052;29;20045;-70
2023/06/29 12:07:53;;;;;;;20.95;18.85;;;32.30;85.80;;;;;;4834634;29;20044;-71
2023/06/29 12:10:24;;;;;;;20.42;18.27;;;32.40;84.80;;;;;;4834910;29;20401;-71
2023/06/29 12:12:56;;;;;;;21.52;19.38;;;32.50;84.00;;;;;;4840342;29;20124;-70
2023/06/29 12:15:24;;;;;;;19.05;17.15;;;32.60;83.70;;;;;;4832355;29;20045;-70
2023/06/29 12:17:53;;;;;;;21.02;18.83;;;32.80;82.90;;;;;;4817019;29;20526;-71
2023/06/29 12:20:24;;;;;;;20.77;18.67;;;32.80;82.40;;;;;;4825911;29;20041;-70
2023/06/29 12:22:53;;;;;;;21.80;18.52;;;32.80;82.00;;;;;;4834925;29;20044;-70
2023/06/29 12:25:21;;;;;;;23.58;20.02;;;32.50;81.50;;;;;;4830983;29;20045;-70
2023/06/29 12:27:49;;;;;;;25.80;21.75;;;32.40;81.20;;;;;;4838640;29;20037;-70
2023/06/29 12:30:20;;;;;;;25.05;21.33;;;32.20;80.70;;;;;;4835312;29;20045;-72